sensor_id;sensor_type;location;lat;lon;timestamp;pressure;altitude;pressure_sealevel;temperature;humidity
51261;BME280;61705;46.228;24.812;2023-02-19T00:01:55;97257.75;;;7.08;84.59
51261;BME280;61705;46.228;24.812;2023-02-19T00:04:21;97237.91;;;7.01;85.31
51261;BME280;61705;46.228;24.812;2023-02-19T00:06:51;97236.75;;;6.85;85.88
51261;BME280;61705;46.228;24.812;2023-02-19T00:09:21;97235.09;;;6.82;86.40
51261;BME280;61705;46.228;24.812;2023-02-19T00:11:48;97249.19;;;6.80;86.39
51261;BME280;61705;46.228;24.812;2023-02-19T00:14:18;97228.94;;;6.83;86.45
51261;BME280;61705;46.228;24.812;2023-02-19T00:16:46;97222.03;;;6.81;86.86
51261;BME280;61705;46.228;24.812;2023-02-19T00:19:15;97233.44;;;6.80;87.09
51261;BME280;61705;46.228;24.812;2023-02-19T00:21:42;97227.97;;;6.86;87.00
51261;BME280;61705;46.228;24.812;2023-02-19T00:24:10;97230.19;;;6.97;86.40
51261;BME280;61705;46.228;24.812;2023-02-19T00:26:38;97232.06;;;6.93;86.48
51261;BME280;61705;46.228;24.812;2023-02-19T00:29:06;97227.84;;;6.89;86.43
51261;BME280;61705;46.228;24.812;2023-02-19T00:31:34;97221.19;;;6.80;86.91
51261;BME280;61705;46.228;24.812;2023-02-19T00:34:03;97216.69;;;6.84;86.80
51261;BME280;61705;46.228;24.812;2023-02-19T00:36:32;97218.31;;;6.86;86.65
51261;BME280;61705;46.228;24.812;2023-02-19T00:39:02;97229.66;;;6.87;86.49
51261;BME280;61705;46.228;24.812;2023-02-19T00:41:29;97220.78;;;6.91;86.55
51261;BME280;61705;46.228;24.812;2023-02-19T00:44:00;97222.41;;;6.94;86.25
51261;BME280;61705;46.228;24.812;2023-02-19T00:46:40;97234.34;;;7.02;85.54
51261;BME280;61705;46.228;24.812;2023-02-19T00:49:14;97227.84;;;6.89;85.87
51261;BME280;61705;46.228;24.812;2023-02-19T00:51:44;97234.31;;;6.80;86.08
51261;BME280;61705;46.228;24.812;2023-02-19T00:54:12;97243.47;;;6.70;86.18
51261;BME280;61705;46.228;24.812;2023-02-19T00:56:44;97233.09;;;6.65;86.50
51261;BME280;61705;46.228;24.812;2023-02-19T00:59:11;97239.47;;;6.60;86.94
51261;BME280;61705;46.228;24.812;2023-02-19T01:01:41;97234.44;;;6.54;86.83
51261;BME280;61705;46.228;24.812;2023-02-19T01:04:10;97237.47;;;6.41;87.17
51261;BME280;61705;46.228;24.812;2023-02-19T01:06:39;97237.94;;;6.29;87.47
51261;BME280;61705;46.228;24.812;2023-02-19T01:09:08;97239.97;;;6.21;87.49
51261;BME280;61705;46.228;24.812;2023-02-19T01:11:36;97247.34;;;6.10;88.16
51261;BME280;61705;46.228;24.812;2023-02-19T01:14:03;97229.47;;;5.96;89.11
51261;BME280;61705;46.228;24.812;2023-02-19T01:16:33;97226.34;;;5.85;89.80
51261;BME280;61705;46.228;24.812;2023-02-19T01:19:00;97225.50;;;5.83;90.23
51261;BME280;61705;46.228;24.812;2023-02-19T01:21:28;97220.47;;;5.77;90.57
51261;BME280;61705;46.228;24.812;2023-02-19T01:23:56;97229.34;;;5.73;90.41
51261;BME280;61705;46.228;24.812;2023-02-19T01:26:25;97230.19;;;5.75;89.95
51261;BME280;61705;46.228;24.812;2023-02-19T01:28:52;97224.41;;;5.63;90.17
51261;BME280;61705;46.228;24.812;2023-02-19T01:31:21;97236.84;;;5.57;90.28
51261;BME280;61705;46.228;24.812;2023-02-19T01:33:59;97235.31;;;5.51;90.84
51261;BME280;61705;46.228;24.812;2023-02-19T01:36:27;97236.19;;;5.50;90.75
51261;BME280;61705;46.228;24.812;2023-02-19T01:39:00;97234.41;;;5.52;90.50
51261;BME280;61705;46.228;24.812;2023-02-19T01:41:35;97234.13;;;5.60;90.72
51261;BME280;61705;46.228;24.812;2023-02-19T01:46:36;97241.50;;;5.49;92.22
51261;BME280;61705;46.228;24.812;2023-02-19T01:49:18;97243.97;;;5.53;92.66
51261;BME280;61705;46.228;24.812;2023-02-19T01:51:53;97236.06;;;5.55;91.87
51261;BME280;61705;46.228;24.812;2023-02-19T01:54:25;97242.72;;;5.65;91.34
51261;BME280;61705;46.228;24.812;2023-02-19T01:56:54;97252.78;;;5.77;91.21
51261;BME280;61705;46.228;24.812;2023-02-19T01:59:22;97255.03;;;5.88;90.62
51261;BME280;61705;46.228;24.812;2023-02-19T02:01:49;97243.66;;;5.89;90.51
51261;BME280;61705;46.228;24.812;2023-02-19T02:04:18;97249.69;;;5.91;90.51
51261;BME280;61705;46.228;24.812;2023-02-19T02:06:51;97254.69;;;6.00;90.21
51261;BME280;61705;46.228;24.812;2023-02-19T02:09:19;97254.03;;;5.93;89.83
51261;BME280;61705;46.228;24.812;2023-02-19T02:12:05;97250.38;;;5.98;89.81
51261;BME280;61705;46.228;24.812;2023-02-19T02:14:36;97258.41;;;5.93;89.91
51261;BME280;61705;46.228;24.812;2023-02-19T02:17:23;97260.00;;;5.99;89.79
51261;BME280;61705;46.228;24.812;2023-02-19T02:22:47;97259.34;;;5.90;89.60
51261;BME280;61705;46.228;24.812;2023-02-19T02:25:26;97259.53;;;5.84;89.84
51261;BME280;61705;46.228;24.812;2023-02-19T02:30:58;97272.88;;;6.05;89.36
51261;BME280;61705;46.228;24.812;2023-02-19T02:33:40;97273.13;;;5.97;89.21
51261;BME280;61705;46.228;24.812;2023-02-19T02:36:23;97278.47;;;6.21;88.93
51261;BME280;61705;46.228;24.812;2023-02-19T02:38:53;97273.25;;;6.44;87.92
51261;BME280;61705;46.228;24.812;2023-02-19T02:41:20;97276.75;;;6.45;87.23
51261;BME280;61705;46.228;24.812;2023-02-19T02:43:47;97276.75;;;6.45;86.62
51261;BME280;61705;46.228;24.812;2023-02-19T02:46:21;97275.28;;;6.61;86.12
51261;BME280;61705;46.228;24.812;2023-02-19T02:48:54;97281.06;;;6.71;85.55
51261;BME280;61705;46.228;24.812;2023-02-19T02:51:38;97278.34;;;6.74;85.12
51261;BME280;61705;46.228;24.812;2023-02-19T02:54:22;97285.84;;;6.83;84.26
51261;BME280;61705;46.228;24.812;2023-02-19T02:57:08;97288.03;;;6.95;83.20
51261;BME280;61705;46.228;24.812;2023-02-19T02:59:43;97291.41;;;6.99;82.74
51261;BME280;61705;46.228;24.812;2023-02-19T03:08:27;97297.22;;;7.07;82.04
51261;BME280;61705;46.228;24.812;2023-02-19T03:11:15;97302.69;;;7.01;82.38
51261;BME280;61705;46.228;24.812;2023-02-19T03:14:11;97293.81;;;7.05;82.23
51261;BME280;61705;46.228;24.812;2023-02-19T03:17:09;97306.34;;;6.97;82.35
51261;BME280;61705;46.228;24.812;2023-02-19T03:19:58;97315.16;;;6.96;82.34
51261;BME280;61705;46.228;24.812;2023-02-19T03:22:35;97315.81;;;7.01;82.46
51261;BME280;61705;46.228;24.812;2023-02-19T03:25:08;97314.94;;;7.02;82.21
51261;BME280;61705;46.228;24.812;2023-02-19T03:27:56;97333.22;;;7.05;81.91
51261;BME280;61705;46.228;24.812;2023-02-19T03:30:28;97323.78;;;6.99;81.91
51261;BME280;61705;46.228;24.812;2023-02-19T03:35:48;97322.22;;;6.94;82.25
51261;BME280;61705;46.228;24.812;2023-02-19T03:38:43;97332.28;;;7.06;81.65
51261;BME280;61705;46.228;24.812;2023-02-19T03:46:35;97332.09;;;7.10;80.89
51261;BME280;61705;46.228;24.812;2023-02-19T03:49:17;97341.25;;;7.00;81.04
51261;BME280;61705;46.228;24.812;2023-02-19T03:52:07;97342.81;;;7.06;81.11
51261;BME280;61705;46.228;24.812;2023-02-19T03:57:16;97350.53;;;6.85;81.86
51261;BME280;61705;46.228;24.812;2023-02-19T04:00:03;97363.00;;;6.80;82.14
51261;BME280;61705;46.228;24.812;2023-02-19T04:02:42;97364.97;;;6.99;81.43
51261;BME280;61705;46.228;24.812;2023-02-19T04:05:15;97365.44;;;6.85;81.87
51261;BME280;61705;46.228;24.812;2023-02-19T04:07:49;97364.50;;;6.87;81.40
51261;BME280;61705;46.228;24.812;2023-02-19T04:10:17;97374.13;;;6.87;81.49
51261;BME280;61705;46.228;24.812;2023-02-19T04:12:55;97369.41;;;6.97;81.18
51261;BME280;61705;46.228;24.812;2023-02-19T04:15:27;97367.97;;;6.88;81.31
51261;BME280;61705;46.228;24.812;2023-02-19T04:18:06;97362.66;;;6.64;81.99
51261;BME280;61705;46.228;24.812;2023-02-19T04:20:38;97371.28;;;6.68;82.02
51261;BME280;61705;46.228;24.812;2023-02-19T04:23:06;97369.81;;;6.61;82.22
51261;BME280;61705;46.228;24.812;2023-02-19T04:25:44;97366.16;;;6.65;82.29
51261;BME280;61705;46.228;24.812;2023-02-19T04:28:13;97368.84;;;6.63;82.47
51261;BME280;61705;46.228;24.812;2023-02-19T04:30:42;97365.50;;;6.58;82.47
51261;BME280;61705;46.228;24.812;2023-02-19T04:33:14;97379.00;;;6.73;82.16
51261;BME280;61705;46.228;24.812;2023-02-19T04:35:43;97380.47;;;6.81;81.63
51261;BME280;61705;46.228;24.812;2023-02-19T04:38:12;97377.28;;;6.72;81.71
51261;BME280;61705;46.228;24.812;2023-02-19T04:40:39;97376.59;;;6.67;81.83
51261;BME280;61705;46.228;24.812;2023-02-19T04:43:06;97381.16;;;6.61;81.97
51261;BME280;61705;46.228;24.812;2023-02-19T04:45:36;97380.50;;;6.55;82.11
51261;BME280;61705;46.228;24.812;2023-02-19T04:48:06;97383.06;;;6.56;82.41
51261;BME280;61705;46.228;24.812;2023-02-19T04:50:33;97381.09;;;6.63;81.99
51261;BME280;61705;46.228;24.812;2023-02-19T04:52:59;97380.78;;;6.72;81.56
51261;BME280;61705;46.228;24.812;2023-02-19T04:55:26;97377.94;;;6.78;81.14
51261;BME280;61705;46.228;24.812;2023-02-19T04:57:53;97382.72;;;6.67;81.26
51261;BME280;61705;46.228;24.812;2023-02-19T05:00:20;97375.69;;;6.68;81.27
51261;BME280;61705;46.228;24.812;2023-02-19T05:02:49;97381.16;;;6.61;81.34
51261;BME280;61705;46.228;24.812;2023-02-19T05:05:15;97383.94;;;6.57;81.63
51261;BME280;61705;46.228;24.812;2023-02-19T05:07:42;97387.34;;;6.59;81.51
51261;BME280;61705;46.228;24.812;2023-02-19T05:10:12;97381.97;;;6.63;81.22
51261;BME280;61705;46.228;24.812;2023-02-19T05:12:43;97384.44;;;6.68;81.07
51261;BME280;61705;46.228;24.812;2023-02-19T05:15:10;97379.75;;;6.76;80.47
51261;BME280;61705;46.228;24.812;2023-02-19T05:17:37;97376.34;;;6.74;80.10
51261;BME280;61705;46.228;24.812;2023-02-19T05:20:06;97379.00;;;6.73;80.16
51261;BME280;61705;46.228;24.812;2023-02-19T05:22:33;97376.72;;;6.63;80.34
51261;BME280;61705;46.228;24.812;2023-02-19T05:25:03;97374.28;;;6.57;80.42
51261;BME280;61705;46.228;24.812;2023-02-19T05:27:30;97381.56;;;6.49;80.69
51261;BME280;61705;46.228;24.812;2023-02-19T05:30:03;97378.34;;;6.41;81.22
51261;BME280;61705;46.228;24.812;2023-02-19T05:32:30;97379.31;;;6.38;81.23
51261;BME280;61705;46.228;24.812;2023-02-19T05:34:57;97375.66;;;6.43;81.14
51261;BME280;61705;46.228;24.812;2023-02-19T05:37:23;97375.03;;;6.36;81.20
51261;BME280;61705;46.228;24.812;2023-02-19T05:39:50;97378.75;;;6.29;81.38
51261;BME280;61705;46.228;24.812;2023-02-19T05:42:17;97384.06;;;6.27;81.51
51261;BME280;61705;46.228;24.812;2023-02-19T05:44:43;97388.56;;;6.24;81.75
51261;BME280;61705;46.228;24.812;2023-02-19T05:47:14;97392.00;;;6.26;81.84
51261;BME280;61705;46.228;24.812;2023-02-19T05:49:50;97377.31;;;6.20;81.82
51261;BME280;61705;46.228;24.812;2023-02-19T05:52:19;97375.63;;;6.17;81.86
51261;BME280;61705;46.228;24.812;2023-02-19T05:54:46;97372.00;;;6.22;81.96
51261;BME280;61705;46.228;24.812;2023-02-19T05:57:15;97379.97;;;6.18;81.92
51261;BME280;61705;46.228;24.812;2023-02-19T05:59:44;97373.09;;;6.14;82.06
51261;BME280;61705;46.228;24.812;2023-02-19T06:02:11;97369.63;;;6.14;82.26
51261;BME280;61705;46.228;24.812;2023-02-19T06:04:40;97371.44;;;6.12;82.25
51261;BME280;61705;46.228;24.812;2023-02-19T06:07:06;97369.97;;;6.03;82.30
51261;BME280;61705;46.228;24.812;2023-02-19T06:09:33;97377.00;;;6.03;82.48
51261;BME280;61705;46.228;24.812;2023-02-19T06:11:59;97377.84;;;6.03;82.39
51261;BME280;61705;46.228;24.812;2023-02-19T06:14:29;97375.16;;;6.05;82.17
51261;BME280;61705;46.228;24.812;2023-02-19T06:16:57;97383.91;;;6.05;82.33
51261;BME280;61705;46.228;24.812;2023-02-19T06:19:26;97385.56;;;6.08;82.13
51261;BME280;61705;46.228;24.812;2023-02-19T06:21:53;97379.38;;;6.10;82.11
51261;BME280;61705;46.228;24.812;2023-02-19T06:24:21;97387.28;;;6.09;82.23
51261;BME280;61705;46.228;24.812;2023-02-19T06:26:47;97382.94;;;6.08;82.30
51261;BME280;61705;46.228;24.812;2023-02-19T06:29:31;97383.09;;;6.03;82.24
51261;BME280;61705;46.228;24.812;2023-02-19T06:32:00;97383.78;;;6.08;82.08
51261;BME280;61705;46.228;24.812;2023-02-19T06:34:30;97386.19;;;6.16;81.81
51261;BME280;61705;46.228;24.812;2023-02-19T06:36:57;97378.44;;;6.38;81.09
51261;BME280;61705;46.228;24.812;2023-02-19T06:39:24;97367.19;;;6.34;81.24
51261;BME280;61705;46.228;24.812;2023-02-19T06:41:54;97354.16;;;6.33;80.94
51261;BME280;61705;46.228;24.812;2023-02-19T06:44:24;97345.38;;;6.32;80.83
51261;BME280;61705;46.228;24.812;2023-02-19T06:46:53;97343.78;;;6.28;80.98
51261;BME280;61705;46.228;24.812;2023-02-19T06:49:21;97346.38;;;6.30;81.22
51261;BME280;61705;46.228;24.812;2023-02-19T06:51:48;97355.75;;;6.37;80.97
51261;BME280;61705;46.228;24.812;2023-02-19T06:54:14;97347.78;;;6.40;81.12
51261;BME280;61705;46.228;24.812;2023-02-19T06:56:41;97358.81;;;6.50;81.29
51261;BME280;61705;46.228;24.812;2023-02-19T06:59:14;97358.47;;;6.59;80.99
51261;BME280;61705;46.228;24.812;2023-02-19T07:01:44;97354.63;;;6.69;80.87
51261;BME280;61705;46.228;24.812;2023-02-19T07:04:13;97367.34;;;6.81;80.78
51261;BME280;61705;46.228;24.812;2023-02-19T07:06:42;97364.22;;;6.95;80.63
51261;BME280;61705;46.228;24.812;2023-02-19T07:09:10;97357.81;;;7.02;80.46
51261;BME280;61705;46.228;24.812;2023-02-19T07:11:38;97356.50;;;7.14;80.13
51261;BME280;61705;46.228;24.812;2023-02-19T07:14:13;97358.59;;;7.28;79.94
51261;BME280;61705;46.228;24.812;2023-02-19T07:16:40;97353.97;;;7.34;79.68
51261;BME280;61705;46.228;24.812;2023-02-19T07:19:13;97353.66;;;7.44;79.04
51261;BME280;61705;46.228;24.812;2023-02-19T07:21:41;97353.41;;;7.50;78.16
51261;BME280;61705;46.228;24.812;2023-02-19T07:24:08;97353.13;;;7.57;77.50
51261;BME280;61705;46.228;24.812;2023-02-19T07:26:36;97342.16;;;7.68;77.64
51261;BME280;61705;46.228;24.812;2023-02-19T07:29:03;97335.72;;;7.77;77.25
51261;BME280;61705;46.228;24.812;2023-02-19T07:31:30;97344.13;;;7.85;76.94
51261;BME280;61705;46.228;24.812;2023-02-19T07:34:00;97347.50;;;7.89;76.58
51261;BME280;61705;46.228;24.812;2023-02-19T07:36:28;97346.41;;;7.94;76.19
51261;BME280;61705;46.228;24.812;2023-02-19T07:38:59;97344.06;;;8.08;74.99
51261;BME280;61705;46.228;24.812;2023-02-19T07:41:26;97339.16;;;8.21;74.72
51261;BME280;61705;46.228;24.812;2023-02-19T07:43:58;97343.38;;;8.25;74.52
51261;BME280;61705;46.228;24.812;2023-02-19T07:46:27;97348.56;;;8.27;74.42
51261;BME280;61705;46.228;24.812;2023-02-19T07:49:11;97345.56;;;8.36;74.16
51261;BME280;61705;46.228;24.812;2023-02-19T07:51:42;97352.06;;;8.49;73.59
51261;BME280;61705;46.228;24.812;2023-02-19T07:54:10;97360.34;;;8.61;73.17
51261;BME280;61705;46.228;24.812;2023-02-19T07:56:41;97349.28;;;8.73;73.16
51261;BME280;61705;46.228;24.812;2023-02-19T07:59:13;97351.66;;;8.79;73.09
51261;BME280;61705;46.228;24.812;2023-02-19T08:01:44;97352.84;;;8.92;72.65
51261;BME280;61705;46.228;24.812;2023-02-19T08:04:31;97337.97;;;9.10;72.35
51261;BME280;61705;46.228;24.812;2023-02-19T08:07:00;97334.06;;;9.19;71.78
51261;BME280;61705;46.228;24.812;2023-02-19T08:09:35;97328.38;;;9.28;71.25
51261;BME280;61705;46.228;24.812;2023-02-19T08:12:07;97334.78;;;9.41;71.28
51261;BME280;61705;46.228;24.812;2023-02-19T08:14:53;97332.38;;;9.56;71.04
51261;BME280;61705;46.228;24.812;2023-02-19T08:17:19;97327.75;;;9.61;70.64
51261;BME280;61705;46.228;24.812;2023-02-19T08:19:46;97326.75;;;9.44;69.92
51261;BME280;61705;46.228;24.812;2023-02-19T08:22:26;97324.16;;;9.43;70.50
51261;BME280;61705;46.228;24.812;2023-02-19T08:24:55;97330.88;;;9.31;70.62
51261;BME280;61705;46.228;24.812;2023-02-19T08:27:24;97327.72;;;9.23;69.76
51261;BME280;61705;46.228;24.812;2023-02-19T08:29:52;97336.91;;;9.14;69.90
51261;BME280;61705;46.228;24.812;2023-02-19T08:32:22;97336.25;;;9.09;69.67
51261;BME280;61705;46.228;24.812;2023-02-19T08:34:48;97339.81;;;9.08;69.92
51261;BME280;61705;46.228;24.812;2023-02-19T08:37:17;97337.75;;;9.15;69.87
51261;BME280;61705;46.228;24.812;2023-02-19T08:39:43;97343.53;;;9.23;69.48
51261;BME280;61705;46.228;24.812;2023-02-19T08:42:10;97332.53;;;9.34;69.05
51261;BME280;61705;46.228;24.812;2023-02-19T08:44:36;97330.16;;;9.46;68.68
51261;BME280;61705;46.228;24.812;2023-02-19T08:47:03;97343.63;;;9.59;68.57
51261;BME280;61705;46.228;24.812;2023-02-19T08:49:31;97339.06;;;9.82;67.67
51261;BME280;61705;46.228;24.812;2023-02-19T08:51:57;97335.91;;;9.92;66.55
51261;BME280;61705;46.228;24.812;2023-02-19T08:54:24;97318.84;;;10.00;66.30
51261;BME280;61705;46.228;24.812;2023-02-19T08:56:51;97311.84;;;9.99;66.34
51261;BME280;61705;46.228;24.812;2023-02-19T08:59:20;97307.56;;;9.96;66.59
51261;BME280;61705;46.228;24.812;2023-02-19T09:01:47;97300.09;;;9.87;66.49
51261;BME280;61705;46.228;24.812;2023-02-19T09:04:13;97305.16;;;9.91;66.34
51261;BME280;61705;46.228;24.812;2023-02-19T09:06:40;97296.31;;;10.10;66.13
51261;BME280;61705;46.228;24.812;2023-02-19T09:09:07;97302.78;;;10.21;66.15
51261;BME280;61705;46.228;24.812;2023-02-19T09:11:33;97304.13;;;10.30;65.54
51261;BME280;61705;46.228;24.812;2023-02-19T09:14:00;97299.41;;;10.37;65.33
51261;BME280;61705;46.228;24.812;2023-02-19T09:16:34;97305.38;;;10.40;64.69
51261;BME280;61705;46.228;24.812;2023-02-19T09:19:01;97313.38;;;10.39;64.28
51261;BME280;61705;46.228;24.812;2023-02-19T09:21:31;97295.91;;;10.36;63.68
51261;BME280;61705;46.228;24.812;2023-02-19T09:23:58;97295.97;;;10.35;63.85
51261;BME280;61705;46.228;24.812;2023-02-19T09:26:24;97289.38;;;10.43;63.74
51261;BME280;61705;46.228;24.812;2023-02-19T09:28:51;97289.44;;;10.59;63.30
51261;BME280;61705;46.228;24.812;2023-02-19T09:31:17;97289.59;;;10.56;63.29
51261;BME280;61705;46.228;24.812;2023-02-19T09:33:45;97291.31;;;10.57;62.85
51261;BME280;61705;46.228;24.812;2023-02-19T09:36:12;97300.16;;;10.56;63.17
51261;BME280;61705;46.228;24.812;2023-02-19T09:38:39;97292.31;;;10.55;62.99
51261;BME280;61705;46.228;24.812;2023-02-19T09:41:06;97289.59;;;10.56;63.12
51261;BME280;61705;46.228;24.812;2023-02-19T09:43:36;97290.69;;;10.52;63.26
51261;BME280;61705;46.228;24.812;2023-02-19T09:46:12;97303.34;;;10.46;63.92
51261;BME280;61705;46.228;24.812;2023-02-19T09:48:43;97293.88;;;10.41;64.15
51261;BME280;61705;46.228;24.812;2023-02-19T09:51:12;97305.38;;;10.40;63.65
51261;BME280;61705;46.228;24.812;2023-02-19T09:53:49;97306.78;;;10.30;63.18
51261;BME280;61705;46.228;24.812;2023-02-19T09:56:16;97299.25;;;10.40;62.44
51261;BME280;61705;46.228;24.812;2023-02-19T09:58:45;97299.69;;;10.48;62.49
51261;BME280;61705;46.228;24.812;2023-02-19T10:01:13;97300.41;;;10.52;62.92
51261;BME280;61705;46.228;24.812;2023-02-19T10:03:42;97286.41;;;10.67;62.16
51261;BME280;61705;46.228;24.812;2023-02-19T10:06:12;97286.06;;;10.73;62.10
51261;BME280;61705;46.228;24.812;2023-02-19T10:08:41;97294.09;;;10.72;61.50
51261;BME280;61705;46.228;24.812;2023-02-19T10:11:10;97288.09;;;10.68;61.49
51261;BME280;61705;46.228;24.812;2023-02-19T10:13:41;97289.97;;;10.66;61.21
51261;BME280;61705;46.228;24.812;2023-02-19T10:16:13;97288.66;;;10.57;61.40
51261;BME280;61705;46.228;24.812;2023-02-19T10:18:43;97291.91;;;10.62;61.46
51261;BME280;61705;46.228;24.812;2023-02-19T10:21:13;97277.59;;;10.66;61.15
51261;BME280;61705;46.228;24.812;2023-02-19T10:23:41;97277.38;;;10.71;61.11
51261;BME280;61705;46.228;24.812;2023-02-19T10:26:08;97284.69;;;10.66;61.36
51261;BME280;61705;46.228;24.812;2023-02-19T10:28:35;97264.56;;;10.63;61.00
51261;BME280;61705;46.228;24.812;2023-02-19T10:31:03;97273.09;;;10.68;60.62
51261;BME280;61705;46.228;24.812;2023-02-19T10:33:30;97260.06;;;10.65;60.63
51261;BME280;61705;46.228;24.812;2023-02-19T10:35:58;97260.63;;;10.55;61.29
51261;BME280;61705;46.228;24.812;2023-02-19T10:41:12;97259.34;;;10.62;61.15
51261;BME280;61705;46.228;24.812;2023-02-19T10:43:41;97259.59;;;10.57;61.21
51261;BME280;61705;46.228;24.812;2023-02-19T10:46:16;97264.03;;;10.57;61.29
51261;BME280;61705;46.228;24.812;2023-02-19T10:48:45;97252.97;;;10.66;60.90
51261;BME280;61705;46.228;24.812;2023-02-19T10:51:14;97253.50;;;10.73;60.65
51261;BME280;61705;46.228;24.812;2023-02-19T10:53:47;97252.06;;;10.67;60.61
51261;BME280;61705;46.228;24.812;2023-02-19T10:56:22;97240.16;;;10.58;60.71
51261;BME280;61705;46.228;24.812;2023-02-19T10:58:49;97247.56;;;10.52;60.61
51261;BME280;61705;46.228;24.812;2023-02-19T11:03:47;97249.66;;;10.45;61.21
51261;BME280;61705;46.228;24.812;2023-02-19T11:06:14;97253.16;;;10.46;61.46
51261;BME280;61705;46.228;24.812;2023-02-19T11:11:08;97238.53;;;10.56;60.34
51261;BME280;61705;46.228;24.812;2023-02-19T11:13:35;97242.03;;;10.56;60.01
51261;BME280;61705;46.228;24.812;2023-02-19T11:16:03;97229.75;;;10.55;59.93
51261;BME280;61705;46.228;24.812;2023-02-19T11:18:30;97227.50;;;10.65;59.95
51261;BME280;61705;46.228;24.812;2023-02-19T11:20:58;97226.06;;;10.75;59.67
51261;BME280;61705;46.228;24.812;2023-02-19T11:26:23;97213.56;;;10.95;59.78
51261;BME280;61705;46.228;24.812;2023-02-19T11:28:54;97208.97;;;10.98;59.76
51261;BME280;61705;46.228;24.812;2023-02-19T11:31:28;97208.28;;;10.95;60.02
51261;BME280;61705;46.228;24.812;2023-02-19T11:34:01;97219.09;;;10.90;59.95
51261;BME280;61705;46.228;24.812;2023-02-19T11:36:32;97215.75;;;10.86;60.33
51261;BME280;61705;46.228;24.812;2023-02-19T11:41:57;97200.19;;;11.13;60.40
51261;BME280;61705;46.228;24.812;2023-02-19T11:57:21;97181.44;;;11.80;58.07
51261;BME280;61705;46.228;24.812;2023-02-19T12:10:26;97151.44;;;11.79;57.40
51261;BME280;61705;46.228;24.812;2023-02-19T12:13:06;97149.41;;;11.69;57.75
51261;BME280;61705;46.228;24.812;2023-02-19T12:18:27;97152.75;;;11.26;59.39
51261;BME280;61705;46.228;24.812;2023-02-19T12:21:10;97153.25;;;11.17;59.47
51261;BME280;61705;46.228;24.812;2023-02-19T12:26:27;97168.78;;;11.07;59.01
51261;BME280;61705;46.228;24.812;2023-02-19T12:29:14;97162.81;;;10.88;59.43
51261;BME280;61705;46.228;24.812;2023-02-19T12:48:07;97177.19;;;10.51;60.38
51261;BME280;61705;46.228;24.812;2023-02-19T12:50:46;97182.72;;;10.62;60.07
51261;BME280;61705;46.228;24.812;2023-02-19T12:56:07;97167.41;;;10.68;60.13
51261;BME280;61705;46.228;24.812;2023-02-19T12:58:52;97165.88;;;10.64;60.14
51261;BME280;61705;46.228;24.812;2023-02-19T13:01:46;97168.66;;;10.61;60.55
51261;BME280;61705;46.228;24.812;2023-02-19T13:04:25;97166.63;;;10.66;60.59
51261;BME280;61705;46.228;24.812;2023-02-19T13:07:07;97159.28;;;10.56;61.34
51261;BME280;61705;46.228;24.812;2023-02-19T13:12:13;97159.94;;;10.43;62.29
51261;BME280;61705;46.228;24.812;2023-02-19T13:14:50;97162.13;;;10.35;63.10
51261;BME280;61705;46.228;24.812;2023-02-19T13:17:47;97165.72;;;10.34;63.82
51261;BME280;61705;46.228;24.812;2023-02-19T13:28:41;97178.28;;;9.94;66.90
51261;BME280;61705;46.228;24.812;2023-02-19T13:37:20;97158.56;;;9.84;68.51
51261;BME280;61705;46.228;24.812;2023-02-19T13:39:51;97165.75;;;9.82;68.64
51261;BME280;61705;46.228;24.812;2023-02-19T13:42:41;97154.63;;;9.93;67.77
51261;BME280;61705;46.228;24.812;2023-02-19T13:45:23;97155.16;;;10.00;67.62
51261;BME280;61705;46.228;24.812;2023-02-19T13:50:29;97151.28;;;10.07;67.27
51261;BME280;61705;46.228;24.812;2023-02-19T13:53:00;97154.31;;;9.99;67.50
51261;BME280;61705;46.228;24.812;2023-02-19T13:55:46;97154.78;;;9.90;68.18
51261;BME280;61705;46.228;24.812;2023-02-19T13:58:38;97146.31;;;10.01;67.59
51261;BME280;61705;46.228;24.812;2023-02-19T14:04:22;97121.59;;;10.19;66.86
51261;BME280;61705;46.228;24.812;2023-02-19T14:14:54;97133.34;;;10.13;67.34
51261;BME280;61705;46.228;24.812;2023-02-19T14:17:38;97132.34;;;9.99;67.80
51261;BME280;61705;46.228;24.812;2023-02-19T14:28:19;97145.38;;;9.49;71.12
51261;BME280;61705;46.228;24.812;2023-02-19T14:30:50;97143.78;;;9.47;71.88
51261;BME280;61705;46.228;24.812;2023-02-19T14:38:46;97145.66;;;9.26;73.06
51261;BME280;61705;46.228;24.812;2023-02-19T14:41:17;97143.03;;;9.26;73.56
51261;BME280;61705;46.228;24.812;2023-02-19T14:43:45;97140.28;;;9.10;73.71
51261;BME280;61705;46.228;24.812;2023-02-19T14:46:21;97151.97;;;9.05;74.26
51261;BME280;61705;46.228;24.812;2023-02-19T14:48:52;97168.88;;;9.00;75.00
51261;BME280;61705;46.228;24.812;2023-02-19T14:51:30;97172.56;;;8.96;75.30
51261;BME280;61705;46.228;24.812;2023-02-19T14:53:59;97174.66;;;8.90;75.77
51261;BME280;61705;46.228;24.812;2023-02-19T14:56:32;97169.75;;;8.82;76.57
51261;BME280;61705;46.228;24.812;2023-02-19T14:59:19;97182.34;;;8.75;77.24
51261;BME280;61705;46.228;24.812;2023-02-19T15:02:03;97196.34;;;8.57;78.53
51261;BME280;61705;46.228;24.812;2023-02-19T15:04:40;97202.66;;;8.53;79.34
51261;BME280;61705;46.228;24.812;2023-02-19T15:07:08;97197.28;;;8.56;79.76
51261;BME280;61705;46.228;24.812;2023-02-19T15:09:42;97169.41;;;8.50;80.09
51261;BME280;61705;46.228;24.812;2023-02-19T15:12:23;97171.47;;;8.44;80.74
51261;BME280;61705;46.228;24.812;2023-02-19T15:14:53;97156.22;;;8.31;81.46
51261;BME280;61705;46.228;24.812;2023-02-19T15:17:28;97140.34;;;8.33;81.83
51261;BME280;61705;46.228;24.812;2023-02-19T15:20:07;97149.09;;;8.34;82.05
51261;BME280;61705;46.228;24.812;2023-02-19T15:22:38;97157.41;;;8.24;82.09
51261;BME280;61705;46.228;24.812;2023-02-19T15:25:10;97164.50;;;8.22;82.45
51261;BME280;61705;46.228;24.812;2023-02-19T15:27:39;97160.31;;;8.18;82.72
51261;BME280;61705;46.228;24.812;2023-02-19T15:30:19;97160.84;;;8.06;83.15
51261;BME280;61705;46.228;24.812;2023-02-19T15:32:58;97158.56;;;7.98;83.38